createdAt,value
2018-07-30T00:02:05.089Z,45.20
2018-07-30T00:04:39.309Z,45.40
2018-07-30T00:07:14.336Z,45.80
2018-07-30T00:13:03.612Z,46.30
2018-07-30T00:15:45.611Z,46.30
2018-07-30T00:18:33.660Z,46.20
2018-07-30T00:21:12.423Z,46.40
2018-07-30T00:23:45.061Z,46.40
2018-07-30T00:26:19.993Z,46.70
2018-07-30T00:28:59.335Z,46.60
2018-07-30T00:44:20.300Z,47.40
2018-07-30T00:53:48.164Z,48.10
2018-07-30T00:57:04.462Z,48.50
2018-07-30T00:59:43.912Z,48.60
2018-07-30T01:02:17.710Z,48.90
2018-07-30T01:04:51.928Z,49.40
2018-07-30T01:07:27.260Z,49.70
2018-07-30T01:10:02.112Z,49.60
2018-07-30T01:12:35.096Z,49.60
2018-07-30T01:15:09.972Z,49.60
2018-07-30T01:17:43.728Z,50.10
2018-07-30T01:20:15.330Z,50.20
2018-07-30T01:22:47.452Z,50.60
2018-07-30T01:25:19.390Z,50.60
2018-07-30T01:27:54.138Z,50.40
2018-07-30T01:30:24.903Z,50.50
2018-07-30T01:36:06.275Z,50.60
2018-07-30T01:38:37.528Z,50.40
2018-07-30T01:41:13.883Z,50.40
2018-07-30T01:44:10.877Z,50.60
2018-07-30T01:46:55.391Z,50.80
2018-07-30T01:49:29.819Z,50.80
2018-07-30T01:52:11.491Z,51.20
2018-07-30T01:54:46.955Z,51.10
2018-07-30T01:57:20.270Z,51.20
2018-07-30T02:02:48.812Z,51.30
2018-07-30T02:05:24.114Z,51.10
2018-07-30T02:07:59.828Z,51.10
2018-07-30T02:10:31.591Z,51.20
2018-07-30T02:13:23.003Z,51.60
2018-07-30T02:16:04.300Z,51.20
2018-07-30T02:18:48.555Z,51.60
2018-07-30T02:21:43.022Z,51.90
2018-07-30T02:27:19.122Z,51.90
2018-07-30T02:30:07.378Z,51.50
2018-07-30T02:32:45.958Z,50.60
2018-07-30T02:50:22.228Z,50.10
2018-07-30T02:53:12.737Z,50.90
2018-07-30T02:56:13.153Z,51.00
2018-07-30T02:58:52.309Z,52.00
2018-07-30T03:01:28.949Z,51.80
2018-07-30T03:04:12.298Z,51.80
2018-07-30T03:09:31.883Z,52.10
2018-07-30T03:12:10.387Z,52.40
2018-07-30T03:14:54.929Z,52.50
2018-07-30T03:17:43.516Z,52.60
2018-07-30T03:20:17.151Z,53.00
2018-07-30T03:22:48.122Z,52.30
2018-07-30T03:25:18.453Z,52.30
2018-07-30T03:27:49.883Z,52.20
2018-07-30T03:30:18.971Z,52.40
2018-07-30T03:32:49.368Z,52.60
2018-07-30T03:35:18.988Z,52.70
2018-07-30T03:37:50.344Z,53.20
2018-07-30T03:40:20.808Z,53.70
2018-07-30T03:42:52.056Z,53.70
2018-07-30T03:45:22.989Z,54.00
2018-07-30T03:48:03.447Z,53.80
2018-07-30T03:50:33.323Z,54.30
2018-07-30T03:53:03.076Z,54.70
2018-07-30T03:55:33.461Z,54.70
2018-07-30T03:58:08.905Z,54.70
2018-07-30T04:00:41.295Z,54.30
2018-07-30T04:03:17.741Z,54.50
2018-07-30T04:05:50.523Z,54.50
2018-07-30T04:08:20.956Z,54.30
2018-07-30T04:10:51.675Z,54.10
2018-07-30T04:13:35.316Z,54.20
2018-07-30T04:18:52.413Z,54.80
2018-07-30T04:21:24.238Z,55.30
2018-07-30T04:23:59.138Z,55.50
2018-07-30T04:26:56.701Z,55.60
2018-07-30T04:29:33.275Z,56.00
2018-07-30T04:32:11.789Z,56.10
2018-07-30T04:34:57.060Z,56.30
2018-07-30T04:37:28.614Z,56.40
2018-07-30T04:40:10.761Z,56.60
2018-07-30T04:42:42.372Z,56.80
2018-07-30T04:45:16.581Z,57.10
2018-07-30T04:47:48.401Z,57.00
2018-07-30T04:50:18.514Z,56.50
2018-07-30T04:52:49.698Z,56.70
2018-07-30T04:55:24.087Z,57.80
2018-07-30T04:57:56.796Z,56.50
2018-07-30T05:04:42.800Z,56.20
2018-07-30T05:07:19.899Z,55.20
2018-07-30T05:18:05.969Z,54.50
2018-07-30T05:20:37.621Z,52.20
2018-07-30T05:23:12.734Z,52.30
2018-07-30T05:25:43.980Z,52.00
2018-07-30T05:28:15.155Z,51.70
2018-07-30T05:30:52.643Z,51.50
2018-07-30T05:33:23.779Z,48.60
2018-07-30T05:35:58.608Z,47.00
2018-07-30T05:38:30.745Z,44.70
2018-07-30T05:41:02.748Z,42.50
2018-07-30T05:43:37.368Z,41.10
2018-07-30T05:46:13.016Z,39.40
2018-07-30T05:48:53.444Z,38.10
2018-07-30T05:51:31.349Z,37.20
2018-07-30T05:54:17.824Z,35.70
2018-07-30T05:56:49.166Z,34.00
2018-07-30T05:59:24.645Z,33.20
2018-07-30T06:01:55.652Z,32.70
2018-07-30T06:04:40.888Z,31.80
2018-07-30T06:07:12.334Z,31.80
2018-07-30T06:09:43.088Z,32.40
2018-07-30T06:12:15.429Z,32.70
2018-07-30T06:14:44.817Z,31.90
2018-07-30T06:17:16.915Z,31.20
2018-07-30T06:19:51.479Z,30.90
2018-07-30T06:22:22.155Z,30.10
2018-07-30T06:24:51.602Z,30.50
2018-07-30T06:27:21.236Z,30.30
2018-07-30T06:29:51.385Z,29.20
2018-07-30T06:32:21.060Z,29.00
2018-07-30T06:34:50.280Z,28.80
2018-07-30T06:37:21.530Z,28.60
2018-07-30T06:39:53.463Z,28.90
2018-07-30T06:42:23.400Z,29.10
2018-07-30T06:44:53.485Z,28.90
2018-07-30T06:47:22.664Z,28.70
2018-07-30T06:49:52.679Z,28.80
2018-07-30T06:52:22.254Z,28.60
2018-07-30T06:54:51.206Z,28.30
2018-07-30T06:57:20.994Z,28.70
2018-07-30T06:59:50.422Z,27.90
2018-07-30T07:02:19.280Z,28.00
2018-07-30T07:04:48.073Z,28.40
2018-07-30T07:07:18.683Z,28.40
2018-07-30T07:09:47.720Z,28.10
2018-07-30T07:12:19.938Z,28.20
2018-07-30T07:14:51.038Z,27.70
2018-07-30T07:17:24.778Z,28.30
2018-07-30T07:20:18.732Z,27.20
2018-07-30T07:22:58.520Z,27.40
2018-07-30T07:25:42.828Z,26.00
2018-07-30T07:31:05.064Z,26.70
2018-07-30T07:33:49.374Z,26.40
2018-07-30T07:36:23.268Z,25.50
2018-07-30T07:38:53.612Z,24.30
2018-07-30T07:41:24.634Z,24.30
2018-07-30T07:43:54.261Z,23.70
2018-07-30T07:46:24.545Z,24.20
2018-07-30T07:48:54.176Z,24.40
2018-07-30T07:51:24.432Z,24.00
2018-07-30T07:56:22.772Z,22.10
2018-07-30T07:58:52.786Z,21.70
2018-07-30T08:04:21.522Z,20.90
2018-07-30T08:06:59.089Z,20.20
2018-07-30T08:09:34.643Z,20.50
2018-07-30T08:15:05.108Z,20.30
2018-07-30T08:20:36.619Z,20.20
2018-07-30T08:29:28.152Z,20.70
2018-07-30T08:34:59.460Z,18.20
2018-07-30T08:44:22.038Z,17.70
2018-07-30T08:47:16.137Z,19.10
2018-07-30T08:50:22.024Z,18.90
2018-07-30T08:55:42.947Z,18.50
2018-07-30T08:58:19.435Z,18.90
2018-07-30T09:00:55.971Z,18.20
2018-07-30T09:03:36.774Z,18.00
2018-07-30T09:06:11.864Z,17.50
2018-07-30T09:09:00.924Z,17.30
2018-07-30T09:11:38.967Z,17.60
2018-07-30T09:14:13.400Z,17.20
2018-07-30T09:16:57.348Z,16.80
2018-07-30T09:19:58.687Z,16.90
2018-07-30T09:22:40.005Z,16.80
2018-07-30T09:25:28.893Z,16.80
2018-07-30T09:28:18.499Z,17.10
2018-07-30T09:36:15.989Z,15.90
2018-07-30T09:39:01.410Z,16.30
2018-07-30T09:41:44.856Z,17.60
2018-07-30T09:44:26.285Z,17.70
2018-07-30T09:47:06.715Z,18.90
2018-07-30T09:53:04.899Z,18.60
2018-07-30T10:07:43.497Z,19.60
2018-07-30T10:10:26.572Z,19.40
2018-07-30T10:13:11.054Z,19.20
2018-07-30T10:19:47.368Z,20.60
2018-07-30T10:22:31.392Z,19.70
2018-07-30T10:25:21.068Z,19.70
2018-07-30T10:28:10.466Z,19.10
2018-07-30T10:30:55.253Z,19.10
2018-07-30T10:33:26.836Z,19.00
2018-07-30T10:36:02.550Z,18.80
2018-07-30T10:38:33.905Z,19.80
2018-07-30T10:41:10.575Z,18.50
2018-07-30T10:43:55.236Z,18.20
2018-07-30T10:46:57.904Z,18.70
2018-07-30T10:49:46.655Z,18.30
2018-07-30T10:52:39.199Z,17.80
2018-07-30T10:55:34.427Z,17.20
2018-07-30T10:58:20.933Z,17.40
2018-07-30T11:01:05.227Z,17.80
2018-07-30T11:03:43.725Z,18.10
2018-07-30T11:06:29.017Z,17.50
2018-07-30T11:24:32.556Z,17.90
2018-07-30T11:27:17.843Z,18.90
2018-07-30T11:29:57.891Z,18.30
2018-07-30T11:32:45.314Z,17.40
2018-07-30T11:35:42.759Z,17.20
2018-07-30T11:38:14.242Z,16.90
2018-07-30T11:40:47.917Z,16.40
2018-07-30T11:43:25.327Z,15.50
2018-07-30T11:46:03.406Z,16.00
2018-07-30T11:55:36.487Z,15.70
2018-07-30T11:58:23.407Z,16.30
2018-07-30T12:01:09.594Z,15.90
2018-07-30T12:09:34.631Z,15.40
2018-07-30T12:18:11.195Z,16.70
2018-07-30T12:20:54.630Z,16.10
2018-07-30T12:23:35.906Z,16.20
2018-07-30T12:26:32.037Z,16.10
2018-07-30T12:29:31.155Z,15.60
2018-07-30T12:35:01.500Z,14.60
2018-07-30T12:37:38.896Z,14.10
2018-07-30T12:44:26.351Z,14.10
2018-07-30T12:47:25.005Z,13.70
2018-07-30T12:56:06.018Z,13.20
2018-07-30T12:58:53.578Z,13.50
2018-07-30T13:01:36.119Z,13.70
2018-07-30T13:04:21.005Z,13.90
2018-07-30T13:06:59.679Z,13.70
2018-07-30T13:09:47.680Z,13.80
2018-07-30T13:15:56.052Z,13.60
2018-07-30T13:18:45.010Z,13.40
2018-07-30T13:21:27.472Z,14.10
2018-07-30T13:24:02.607Z,13.30
2018-07-30T13:26:43.638Z,14.00
2018-07-30T13:41:22.986Z,13.50
2018-07-30T13:43:59.878Z,13.00
2018-07-30T13:46:58.260Z,13.00
2018-07-30T13:50:03.598Z,12.80
2018-07-30T13:55:33.869Z,13.10
2018-07-30T13:58:19.551Z,13.50
2018-07-30T14:01:00.186Z,13.50
2018-07-30T14:03:39.109Z,13.40
2018-07-30T14:09:22.210Z,13.00
2018-07-30T14:12:10.903Z,13.20
2018-07-30T14:15:01.509Z,13.40
2018-07-30T14:17:57.626Z,13.30
2018-07-30T14:23:46.772Z,13.40
2018-07-30T14:29:51.913Z,14.00
2018-07-30T14:32:45.914Z,13.50
2018-07-30T14:41:29.024Z,13.50
2018-07-30T14:44:20.339Z,13.30
2018-07-30T14:47:05.105Z,13.60
2018-07-30T14:56:44.179Z,13.30
2018-07-30T15:03:09.350Z,13.20
2018-07-30T15:25:06.116Z,14.50
2018-07-30T15:28:15.850Z,14.30
2018-07-30T15:34:33.899Z,15.00
2018-07-30T16:06:15.929Z,14.60
2018-07-30T16:09:11.956Z,14.70
2018-07-30T16:12:00.224Z,14.80
2018-07-30T16:14:53.158Z,14.50
2018-07-30T16:17:23.003Z,14.50
2018-07-30T16:19:55.582Z,14.80
2018-07-30T16:22:26.956Z,15.00
2018-07-30T16:24:56.534Z,14.70
2018-07-30T16:27:28.079Z,15.10
2018-07-30T16:29:58.197Z,15.10
2018-07-30T16:32:30.159Z,15.30
2018-07-30T16:35:00.380Z,15.00
2018-07-30T16:37:32.146Z,15.30
2018-07-30T16:40:02.598Z,15.50
2018-07-30T16:43:23.335Z,15.70
2018-07-30T16:45:59.501Z,16.20
2018-07-30T16:48:42.861Z,16.00
2018-07-30T16:51:14.148Z,16.50
2018-07-30T16:56:12.911Z,16.20
2018-07-30T16:58:41.949Z,16.40
2018-07-30T17:01:11.224Z,16.40
2018-07-30T17:03:40.614Z,16.60
2018-07-30T17:06:11.955Z,16.90
2018-07-30T17:08:41.160Z,17.20
2018-07-30T17:11:10.447Z,17.40
2018-07-30T17:13:40.895Z,17.20
2018-07-30T17:16:10.688Z,17.20
2018-07-30T17:18:40.724Z,17.40
2018-07-30T17:21:14.274Z,17.20
2018-07-30T17:23:56.838Z,17.40
2018-07-30T17:26:30.632Z,17.40
2018-07-30T17:29:02.137Z,17.40
2018-07-30T17:31:33.120Z,17.30
2018-07-30T17:39:08.188Z,17.50
2018-07-30T17:41:39.542Z,17.80
2018-07-30T17:44:12.425Z,17.70
2018-07-30T17:46:43.113Z,18.20
2018-07-30T17:49:12.360Z,18.70
2018-07-30T17:51:42.172Z,18.00
2018-07-30T17:54:13.846Z,18.10
2018-07-30T17:56:43.634Z,18.60
2018-07-30T17:59:13.311Z,19.00
2018-07-30T18:01:43.362Z,18.90
2018-07-30T18:04:54.629Z,18.90
2018-07-30T18:07:25.230Z,19.10
2018-07-30T18:09:56.632Z,19.30
2018-07-30T18:12:31.569Z,19.90
2018-07-30T18:15:07.357Z,20.00
2018-07-30T18:17:37.276Z,20.20
2018-07-30T18:20:09.371Z,20.80
2018-07-30T18:22:41.414Z,21.30
2018-07-30T18:25:11.492Z,21.90
2018-07-30T18:27:41.286Z,21.80
2018-07-30T18:30:11.687Z,23.20
2018-07-30T18:32:41.177Z,23.50
2018-07-30T18:35:11.936Z,23.50
2018-07-30T18:37:42.460Z,23.00
2018-07-30T18:40:12.617Z,23.60
2018-07-30T18:42:41.868Z,23.70
2018-07-30T18:45:11.114Z,24.20
2018-07-30T18:47:41.293Z,24.10
2018-07-30T18:50:10.890Z,23.60
2018-07-30T18:52:40.455Z,23.70
2018-07-30T18:55:09.819Z,24.20
2018-07-30T18:57:40.537Z,23.90
2018-07-30T19:00:10.710Z,24.40
2018-07-30T19:02:40.408Z,25.00
2018-07-30T19:05:09.993Z,25.20
2018-07-30T19:07:39.279Z,25.20
2018-07-30T19:10:09.390Z,25.20
2018-07-30T19:12:39.023Z,25.20
2018-07-30T19:15:09.012Z,24.90
2018-07-30T19:17:39.030Z,24.50
2018-07-30T19:20:08.342Z,24.80
2018-07-30T19:22:37.573Z,24.70
2018-07-30T19:25:07.131Z,25.60
2018-07-30T19:27:37.682Z,24.50
2018-07-30T19:30:08.324Z,24.50
2018-07-30T19:32:37.611Z,24.70
2018-07-30T19:35:07.624Z,24.80
2018-07-30T19:37:37.649Z,25.00
2018-07-30T19:42:37.508Z,25.00
2018-07-30T19:45:07.911Z,25.60
2018-07-30T19:47:38.685Z,25.40
2018-07-30T19:50:09.384Z,25.80
2018-07-30T19:52:39.738Z,26.50
2018-07-30T19:55:10.128Z,26.70
2018-07-30T19:57:41.905Z,26.80
2018-07-30T20:00:19.902Z,27.20
2018-07-30T20:02:50.711Z,26.50
2018-07-30T20:05:22.278Z,26.20
2018-07-30T20:10:21.799Z,26.80
2018-07-30T20:12:54.052Z,26.90
2018-07-30T20:15:26.550Z,27.30
2018-07-30T20:17:57.605Z,27.60
2018-07-30T20:20:27.351Z,28.00
2018-07-30T20:22:56.843Z,28.40
2018-07-30T20:25:36.222Z,28.80
2018-07-30T20:28:05.698Z,29.00
2018-07-30T20:30:36.667Z,29.10
2018-07-30T20:33:09.820Z,29.50
2018-07-30T20:35:42.606Z,29.80
2018-07-30T20:38:20.045Z,30.10
2018-07-30T20:41:03.574Z,30.40
2018-07-30T20:43:42.490Z,30.10
2018-07-30T20:46:35.327Z,30.00
2018-07-30T20:52:45.875Z,30.10
2018-07-30T21:05:14.535Z,30.00
2018-07-30T21:15:33.385Z,30.50
2018-07-30T21:18:40.664Z,31.10
2018-07-30T21:21:34.434Z,31.60
2018-07-30T21:29:14.179Z,31.80
2018-07-30T21:42:29.119Z,32.30
2018-07-30T21:45:02.949Z,32.70
2018-07-30T21:47:34.818Z,32.80
2018-07-30T21:50:08.515Z,33.00
2018-07-30T21:52:54.463Z,33.20
2018-07-30T21:55:34.213Z,33.70
2018-07-30T21:58:08.325Z,34.80
2018-07-30T22:00:43.356Z,35.60
2018-07-30T22:03:18.900Z,35.90
2018-07-30T22:06:02.849Z,36.20
2018-07-30T22:08:39.236Z,36.20
2018-07-30T22:11:17.937Z,36.40
2018-07-30T22:13:56.758Z,36.80
2018-07-30T22:16:32.728Z,36.60
2018-07-30T22:19:09.426Z,36.30
2018-07-30T22:21:47.301Z,35.90
2018-07-30T22:24:24.289Z,35.90
2018-07-30T22:26:58.541Z,36.20
2018-07-30T22:29:32.627Z,36.20
2018-07-30T22:32:34.667Z,36.10
2018-07-30T22:35:13.798Z,36.80
2018-07-30T22:38:05.115Z,36.60
2018-07-30T22:43:47.672Z,36.50
2018-07-30T22:46:29.644Z,36.20
2018-07-30T22:49:08.278Z,35.90
2018-07-30T22:54:47.947Z,36.10
2018-07-30T22:57:32.508Z,36.40
2018-07-30T23:00:05.986Z,36.80
2018-07-30T23:02:39.076Z,36.80
2018-07-30T23:05:12.092Z,37.20
2018-07-30T23:07:45.119Z,37.20
2018-07-30T23:10:31.773Z,37.40
2018-07-30T23:13:08.550Z,37.00
2018-07-30T23:15:46.917Z,37.00
2018-07-30T23:18:36.085Z,37.40
2018-07-30T23:21:18.624Z,37.80
2018-07-30T23:30:16.632Z,37.30
2018-07-30T23:38:45.268Z,37.30
2018-07-30T23:41:37.558Z,37.80
2018-07-30T23:46:58.205Z,38.60
2018-07-30T23:49:42.318Z,38.50
2018-07-30T23:52:22.096Z,38.60
2018-07-30T23:55:09.187Z,38.30
